Boeing Field King County International Airport
KBFI : now visible

Airfield :











YOU CAN JOIN US ON...

 
LOGIN :

Register | Disclaimer

   EN    FR    IT 

 









Legend :    VFR   Marginal VFR   IFR   Intensive IFR   Very Intensive IFR
Visi :
Ceiling :
>= 8 km
>= 3000ft
5 to 8 km
1000 to 3000 ft
1500m to 5 km
500 to 1000 ft
800 to 1500m
200 to 500 ft
< 800m
< 200 ft
Symbols :   Thunderstorms  Fog  Heavy snow  Heavy precipitations  Wind > 20 kt






- Airport Elevation : 21 ft
- IATA code : BFI


KBFI - Boeing Field King County International

CURRENT METAR :
  • 101953Z 00000KT 10SM BKN044 BKN055 09/M02 A3023 RMK AO2 SLP237 T00891017

EXPIRED METARs :
  • 101853Z 05006KT 10SM BKN036 08/M01 A3023 RMK AO2 SLP235 T00831011
  • 101753Z VRB03KT 10SM FEW032 08/01 A3022 RMK AO2 SLP232 T00780006 10078 20039 53024
  • 101653Z 27006KT 10SM SCT023 BKN033 06/M01 A3019 RMK AO2 SLP223 T00561006

TAF KBFI
Valid from the 10 at 18:00 until the 11 at 18:00 UTC


101722Z 1018/1118 27006KT P6SM SCT035 SCT050
TEMPO 1018/1020 BKN035 BKN060
FM102000 28008KT P6SM BKN050
FM102300 32008KT P6SM BKN050
FM110200 36003KT P6SM SCT150
KZSE FIR / North America



MET'MAP, your aeronautical weather chart ! - Copyright ORBIFLY December 2007 - Disclaimer

ORBIFLY MET'MAP TEAM :

Programming & Development : Alexandra Zaïnal
Concept & original design : Baudouin d'Aumeries
Assistance for programming : Marc-Olivier Méhu
Technical & hardware support : Manuel Goepfert

Contact : metmap@orbifly.com




SOURCES & CREDITS :

   NOAA       Earth
Advisory